createdAt,value
2018-05-14T00:01:34.056Z,13.24
2018-05-14T00:04:03.218Z,13.30
2018-05-14T00:06:31.702Z,13.31
2018-05-14T00:09:00.126Z,13.40
2018-05-14T00:11:29.318Z,13.39
2018-05-14T00:13:58.549Z,13.38
2018-05-14T00:16:26.961Z,13.35
2018-05-14T00:18:55.550Z,13.21
2018-05-14T00:21:24.012Z,13.21
2018-05-14T00:23:52.435Z,13.27
2018-05-14T00:26:20.899Z,13.35
2018-05-14T00:28:49.330Z,13.37
2018-05-14T00:31:18.498Z,13.41
2018-05-14T00:33:46.903Z,13.51
2018-05-14T00:36:15.310Z,13.46
2018-05-14T00:38:44.557Z,13.57
2018-05-14T00:41:12.971Z,13.47
2018-05-14T00:43:41.742Z,13.29
2018-05-14T00:46:10.910Z,13.38
2018-05-14T00:48:39.330Z,13.36
2018-05-14T00:51:07.779Z,13.48
2018-05-14T00:53:36.225Z,13.56
2018-05-14T00:56:04.954Z,13.58
2018-05-14T00:58:33.404Z,13.58
2018-05-14T01:01:01.917Z,13.42
2018-05-14T01:03:30.331Z,13.49
2018-05-14T01:05:58.761Z,13.49
2018-05-14T01:08:28.882Z,13.46
2018-05-14T01:10:58.066Z,13.49
2018-05-14T01:13:26.480Z,13.52
2018-05-14T01:15:55.661Z,13.69
2018-05-14T01:18:24.108Z,13.66
2018-05-14T01:20:53.376Z,13.75
2018-05-14T01:23:21.820Z,13.60
2018-05-14T01:25:50.242Z,13.62
2018-05-14T01:28:18.695Z,13.53
2018-05-14T01:30:47.895Z,13.55
2018-05-14T01:33:16.306Z,13.52
2018-05-14T01:35:44.815Z,13.52
2018-05-14T01:38:13.262Z,13.58
2018-05-14T01:40:42.445Z,13.62
2018-05-14T01:43:10.849Z,13.49
2018-05-14T01:45:40.037Z,13.53
2018-05-14T01:48:08.439Z,13.59
2018-05-14T01:50:37.714Z,13.65
2018-05-14T01:53:06.137Z,13.75
2018-05-14T01:55:34.609Z,13.70
2018-05-14T01:58:03.791Z,13.72
2018-05-14T02:00:32.230Z,13.75
2018-05-14T02:03:00.654Z,13.70
2018-05-14T02:05:29.263Z,13.70
2018-05-14T02:07:58.473Z,13.52
2018-05-14T02:10:27.638Z,13.59
2018-05-14T02:12:56.039Z,13.53
2018-05-14T02:15:24.451Z,13.50
2018-05-14T02:20:29.917Z,13.56
2018-05-14T02:22:59.299Z,13.49
2018-05-14T02:25:27.745Z,13.50
2018-05-14T02:27:56.139Z,13.49
2018-05-14T02:30:25.314Z,13.57
2018-05-14T02:32:53.746Z,13.57
2018-05-14T02:35:22.189Z,13.42
2018-05-14T02:37:50.631Z,13.36
2018-05-14T02:40:19.102Z,13.34
2018-05-14T02:42:48.286Z,13.52
2018-05-14T02:45:16.727Z,13.42
2018-05-14T02:47:45.124Z,13.45
2018-05-14T02:50:13.606Z,13.47
2018-05-14T02:52:42.090Z,13.42
2018-05-14T02:55:10.508Z,13.56
2018-05-14T02:57:39.000Z,13.54
2018-05-14T03:00:07.544Z,13.54
2018-05-14T03:02:35.959Z,13.55
2018-05-14T03:05:04.379Z,13.37
2018-05-14T03:07:33.534Z,13.47
2018-05-14T03:10:02.733Z,13.40
2018-05-14T03:12:31.121Z,13.45
2018-05-14T03:15:00.294Z,13.47
2018-05-14T03:17:28.812Z,13.56
2018-05-14T03:19:57.240Z,13.44
2018-05-14T03:22:25.720Z,13.38
2018-05-14T03:24:54.879Z,13.44
2018-05-14T03:27:23.294Z,13.52
2018-05-14T03:29:51.690Z,13.57
2018-05-14T03:32:20.926Z,13.62
2018-05-14T03:34:49.340Z,13.52
2018-05-14T03:37:17.787Z,13.40
2018-05-14T03:39:46.212Z,13.48
2018-05-14T03:42:14.705Z,13.39
2018-05-14T03:44:43.158Z,13.44
2018-05-14T03:47:11.548Z,13.50
2018-05-14T03:49:39.947Z,13.44
2018-05-14T03:52:08.390Z,13.47
2018-05-14T03:54:36.798Z,13.49
2018-05-14T03:57:05.235Z,13.55
2018-05-14T03:59:51.858Z,13.45
2018-05-14T04:02:37.950Z,13.51
2018-05-14T04:05:19.616Z,13.41
2018-05-14T04:07:48.809Z,13.56
2018-05-14T04:10:17.995Z,13.53
2018-05-14T04:12:46.428Z,13.57
2018-05-14T04:15:14.829Z,13.52
2018-05-14T04:17:43.299Z,13.46
2018-05-14T04:20:11.709Z,13.59
2018-05-14T04:22:40.138Z,13.58
2018-05-14T04:25:08.560Z,13.68
2018-05-14T04:27:37.046Z,13.69
2018-05-14T04:30:05.506Z,13.70
2018-05-14T04:32:33.926Z,13.60
2018-05-14T04:35:02.343Z,13.61
2018-05-14T04:37:30.768Z,13.56
2018-05-14T04:39:59.194Z,13.74
2018-05-14T04:42:27.613Z,13.87
2018-05-14T04:44:56.051Z,13.85
2018-05-14T04:47:24.486Z,14.04
2018-05-14T04:49:52.922Z,14.09
2018-05-14T04:52:21.428Z,14.17
2018-05-14T04:54:50.632Z,14.16
2018-05-14T04:57:19.827Z,14.32
2018-05-14T04:59:48.270Z,14.37
2018-05-14T05:02:16.700Z,14.24
2018-05-14T05:04:45.193Z,14.33
2018-05-14T05:07:14.434Z,14.42
2018-05-14T05:09:42.867Z,14.33
2018-05-14T05:12:11.281Z,14.29
2018-05-14T05:14:39.703Z,14.26
2018-05-14T05:17:08.934Z,14.34
2018-05-14T05:19:37.303Z,14.38
2018-05-14T05:22:05.730Z,14.36
2018-05-14T05:24:34.225Z,14.45
2018-05-14T05:27:02.650Z,14.40
2018-05-14T05:29:31.067Z,14.58
2018-05-14T05:32:00.258Z,14.72
2018-05-14T05:34:28.682Z,14.78
2018-05-14T05:36:57.166Z,14.73
2018-05-14T05:39:25.585Z,14.72
2018-05-14T05:41:54.029Z,14.67
2018-05-14T05:44:22.462Z,14.88
2018-05-14T05:46:50.852Z,14.84
2018-05-14T05:49:19.285Z,14.89
2018-05-14T05:51:47.773Z,14.97
2018-05-14T05:54:16.934Z,15.04
2018-05-14T05:56:45.328Z,15.15
2018-05-14T05:59:14.513Z,15.16
2018-05-14T06:01:42.911Z,15.23
2018-05-14T06:04:12.155Z,15.16
2018-05-14T06:06:40.609Z,15.17
2018-05-14T06:09:09.791Z,15.54
2018-05-14T06:11:38.189Z,15.67
2018-05-14T06:14:07.367Z,15.76
2018-05-14T06:16:35.762Z,15.88
2018-05-14T06:19:05.007Z,15.97
2018-05-14T06:21:33.860Z,15.99
2018-05-14T06:24:03.030Z,16.21
2018-05-14T06:26:31.437Z,16.43
2018-05-14T06:28:59.845Z,16.49
2018-05-14T06:31:29.069Z,16.12
2018-05-14T06:33:57.456Z,16.22
2018-05-14T06:36:25.842Z,16.16
2018-05-14T06:38:54.283Z,16.47
2018-05-14T06:41:23.438Z,16.55
2018-05-14T06:43:51.863Z,16.41
2018-05-14T06:46:20.322Z,16.52
2018-05-14T06:48:48.788Z,16.88
2018-05-14T06:51:17.183Z,16.81
2018-05-14T06:53:46.378Z,16.83
2018-05-14T06:56:14.771Z,16.99
2018-05-14T06:58:43.201Z,16.67
2018-05-14T07:01:11.605Z,16.60
2018-05-14T07:03:40.029Z,16.99
2018-05-14T07:06:08.401Z,16.94
2018-05-14T07:08:37.639Z,17.25
2018-05-14T07:11:06.038Z,17.28
2018-05-14T07:13:35.186Z,17.67
2018-05-14T07:16:03.618Z,17.33
2018-05-14T07:18:32.779Z,17.29
2018-05-14T07:21:01.200Z,17.43
2018-05-14T07:23:30.519Z,17.25
2018-05-14T07:25:59.700Z,17.23
2018-05-14T07:28:28.123Z,17.22
2018-05-14T07:30:56.509Z,17.49
2018-05-14T07:33:24.921Z,17.29
2018-05-14T07:35:53.302Z,17.19
2018-05-14T07:38:21.728Z,17.50
2018-05-14T07:40:50.890Z,17.84
2018-05-14T07:43:19.294Z,18.20
2018-05-14T07:45:47.704Z,18.20
2018-05-14T07:48:16.897Z,18.62
2018-05-14T07:50:46.045Z,18.65
2018-05-14T07:53:14.498Z,18.43
2018-05-14T07:55:42.939Z,18.68
2018-05-14T07:58:11.394Z,19.04
2018-05-14T08:00:39.775Z,19.43
2018-05-14T08:03:08.145Z,20.00
2018-05-14T08:05:36.802Z,20.11
2018-05-14T08:08:05.145Z,21.22
2018-05-14T08:10:33.579Z,21.85
2018-05-14T08:13:02.752Z,23.10
2018-05-14T08:15:31.164Z,23.21
2018-05-14T08:18:00.341Z,22.21
2018-05-14T08:20:28.771Z,21.41
2018-05-14T08:22:57.210Z,20.97
2018-05-14T08:25:25.621Z,20.89
2018-05-14T08:27:54.865Z,20.69
2018-05-14T08:30:23.271Z,19.98
2018-05-14T08:32:51.655Z,20.13
2018-05-14T08:35:20.081Z,20.42
2018-05-14T08:37:48.590Z,20.59
2018-05-14T08:40:17.813Z,21.11
2018-05-14T08:42:46.231Z,21.05
2018-05-14T08:45:15.389Z,20.80
2018-05-14T08:47:43.794Z,21.21
2018-05-14T08:50:12.186Z,21.83
2018-05-14T08:52:40.595Z,21.35
2018-05-14T08:55:09.775Z,22.68
2018-05-14T08:57:38.216Z,23.66
2018-05-14T09:00:06.565Z,24.70
2018-05-14T09:02:34.950Z,25.31
2018-05-14T09:05:03.378Z,24.72
2018-05-14T09:07:31.835Z,24.58
2018-05-14T09:10:00.249Z,25.10
2018-05-14T09:12:28.622Z,25.72
2018-05-14T09:14:57.785Z,25.63
2018-05-14T09:17:26.184Z,26.25
2018-05-14T09:19:54.591Z,25.87
2018-05-14T09:22:22.979Z,25.95
2018-05-14T09:24:51.363Z,27.21
2018-05-14T09:27:19.774Z,27.50
2018-05-14T09:29:48.178Z,27.97
2018-05-14T09:32:17.357Z,26.40
2018-05-14T09:34:45.750Z,28.47
2018-05-14T09:37:14.977Z,28.56
2018-05-14T09:39:43.380Z,27.28
2018-05-14T09:42:11.820Z,27.65
2018-05-14T09:44:41.419Z,27.85
2018-05-14T09:47:09.818Z,26.74
2018-05-14T09:49:39.246Z,28.12
2018-05-14T09:52:07.716Z,28.55
2018-05-14T09:54:36.907Z,28.57
2018-05-14T09:57:06.083Z,28.43
2018-05-14T09:59:34.533Z,27.96
2018-05-14T10:02:03.101Z,28.62
2018-05-14T10:04:32.497Z,28.22
2018-05-14T10:07:01.668Z,28.39
2018-05-14T10:09:30.890Z,28.14
2018-05-14T10:12:00.146Z,29.03
2018-05-14T10:14:29.365Z,28.08
2018-05-14T10:16:57.721Z,28.23
2018-05-14T10:19:26.150Z,28.15
2018-05-14T10:21:54.553Z,28.35
2018-05-14T10:24:23.742Z,29.02
2018-05-14T10:26:52.931Z,28.96
2018-05-14T10:29:21.330Z,28.60
2018-05-14T10:31:49.762Z,29.11
2018-05-14T10:34:18.163Z,28.62
2018-05-14T10:36:46.600Z,28.71
2018-05-14T10:39:15.801Z,28.55
2018-05-14T10:41:44.994Z,27.96
2018-05-14T10:44:14.170Z,28.61
2018-05-14T10:46:42.827Z,28.05
2018-05-14T10:49:11.208Z,27.81
2018-05-14T10:51:39.623Z,28.51
2018-05-14T10:54:08.046Z,28.58
2018-05-14T10:56:36.479Z,28.58
2018-05-14T10:59:04.955Z,28.17
2018-05-14T11:01:33.345Z,28.60
2018-05-14T11:04:01.866Z,28.80
2018-05-14T11:06:30.258Z,28.94
2018-05-14T11:08:59.422Z,29.05
2018-05-14T11:11:27.847Z,28.67
2018-05-14T11:13:57.030Z,28.93
2018-05-14T11:16:25.434Z,29.54
2018-05-14T11:18:54.893Z,28.94
2018-05-14T11:21:23.339Z,28.62
2018-05-14T11:23:51.750Z,28.89
2018-05-14T11:26:20.141Z,28.29
2018-05-14T11:28:48.521Z,28.04
2018-05-14T11:31:17.681Z,27.97
2018-05-14T11:33:46.829Z,28.42
2018-05-14T11:36:15.210Z,28.75
2018-05-14T11:38:44.365Z,29.16
2018-05-14T11:41:13.510Z,28.63
2018-05-14T11:43:41.900Z,29.15
2018-05-14T11:46:10.311Z,28.83
2018-05-14T11:48:38.718Z,29.09
2018-05-14T11:51:07.113Z,28.05
2018-05-14T11:53:35.534Z,28.48
2018-05-14T11:56:04.694Z,28.87
2018-05-14T11:58:33.121Z,29.45
2018-05-14T12:01:02.285Z,29.12
2018-05-14T12:03:30.669Z,29.60
2018-05-14T12:05:59.058Z,29.44
2018-05-14T12:08:27.505Z,29.44
2018-05-14T12:10:56.677Z,29.25
2018-05-14T12:13:25.099Z,29.73
2018-05-14T12:15:54.336Z,29.98
2018-05-14T12:18:22.720Z,29.20
2018-05-14T12:20:51.108Z,28.76
2018-05-14T12:23:19.514Z,29.44
2018-05-14T12:25:47.951Z,30.03
2018-05-14T12:28:16.314Z,29.25
2018-05-14T12:30:45.465Z,29.07
2018-05-14T12:33:13.909Z,29.80
2018-05-14T12:35:43.050Z,29.37
2018-05-14T12:38:11.436Z,28.34
2018-05-14T12:40:39.893Z,27.81
2018-05-14T12:43:08.265Z,27.50
2018-05-14T12:45:36.661Z,27.10
2018-05-14T12:48:05.033Z,26.83
2018-05-14T12:50:33.502Z,26.50
2018-05-14T12:53:02.681Z,26.59
2018-05-14T12:55:31.081Z,27.41
2018-05-14T12:58:00.290Z,27.53
2018-05-14T13:00:29.542Z,27.87
2018-05-14T13:02:58.086Z,27.14
2018-05-14T13:05:26.458Z,27.23
2018-05-14T13:07:54.847Z,27.19
2018-05-14T13:10:23.977Z,26.83
2018-05-14T13:12:52.387Z,27.23
2018-05-14T13:15:21.551Z,28.52
2018-05-14T13:17:49.923Z,29.83
2018-05-14T13:20:19.095Z,29.75
2018-05-14T13:22:47.578Z,30.83
2018-05-14T13:25:16.006Z,31.42
2018-05-14T13:27:44.417Z,30.85
2018-05-14T13:30:12.798Z,30.89
2018-05-14T13:32:42.026Z,31.34
2018-05-14T13:35:10.400Z,32.01
2018-05-14T13:37:38.809Z,31.15
2018-05-14T13:40:07.251Z,30.99
2018-05-14T13:42:35.860Z,31.22
2018-05-14T13:45:04.249Z,31.06
2018-05-14T13:47:32.634Z,30.93
2018-05-14T13:50:01.006Z,31.02
2018-05-14T13:52:29.474Z,31.48
2018-05-14T13:54:57.948Z,31.88
2018-05-14T13:57:26.497Z,32.31
2018-05-14T13:59:54.815Z,32.46
2018-05-14T14:02:23.207Z,32.95
2018-05-14T14:04:51.748Z,32.38
2018-05-14T14:07:20.198Z,31.69
2018-05-14T14:09:48.608Z,31.50
2018-05-14T14:12:16.978Z,32.18
2018-05-14T14:14:45.351Z,32.15
2018-05-14T14:17:13.721Z,32.08
2018-05-14T14:19:42.106Z,32.32
2018-05-14T14:22:10.480Z,31.75
2018-05-14T14:24:38.863Z,32.18
2018-05-14T14:27:08.173Z,31.67
2018-05-14T14:29:36.570Z,31.44
2018-05-14T14:32:04.994Z,32.11
2018-05-14T14:34:34.149Z,32.52
2018-05-14T14:37:02.566Z,31.83
2018-05-14T14:39:30.974Z,29.87
2018-05-14T14:42:00.228Z,32.31
2018-05-14T14:44:29.331Z,31.82
2018-05-14T14:46:57.737Z,33.08
2018-05-14T14:49:26.234Z,33.09
2018-05-14T14:51:55.389Z,31.56
2018-05-14T14:54:23.794Z,32.59
2018-05-14T14:56:52.189Z,32.99
2018-05-14T14:59:20.596Z,32.09
2018-05-14T15:01:48.982Z,32.83
2018-05-14T15:04:17.352Z,31.93
2018-05-14T15:06:46.518Z,31.70
2018-05-14T15:09:14.898Z,32.44
2018-05-14T15:11:43.285Z,31.74
2018-05-14T15:14:11.712Z,32.18
2018-05-14T15:16:40.091Z,31.14
2018-05-14T15:19:09.270Z,31.99
2018-05-14T15:21:37.649Z,32.66
2018-05-14T15:24:06.098Z,32.75
2018-05-14T15:26:34.409Z,31.96
2018-05-14T15:29:02.803Z,32.39
2018-05-14T15:31:31.353Z,32.63
2018-05-14T15:33:59.742Z,33.56
2018-05-14T15:36:28.121Z,32.45
2018-05-14T15:38:56.494Z,33.13
2018-05-14T15:41:24.948Z,33.28
2018-05-14T15:43:53.298Z,32.99
2018-05-14T15:46:21.818Z,33.22
2018-05-14T15:48:50.982Z,32.30
2018-05-14T15:51:19.377Z,32.24
2018-05-14T15:53:47.757Z,31.35
2018-05-14T15:56:16.171Z,31.09
2018-05-14T15:58:44.530Z,31.14
2018-05-14T16:01:13.712Z,30.32
2018-05-14T16:03:42.110Z,30.70
2018-05-14T16:06:10.530Z,31.11
2018-05-14T16:08:38.905Z,29.94
2018-05-14T16:11:07.273Z,28.87
2018-05-14T16:13:36.567Z,28.35
2018-05-14T16:16:04.946Z,28.37
2018-05-14T16:18:34.113Z,28.28
2018-05-14T16:21:02.511Z,27.58
2018-05-14T16:23:30.886Z,27.69
2018-05-14T16:25:59.282Z,27.57
2018-05-14T16:28:27.682Z,27.28
2018-05-14T16:30:56.118Z,26.96
2018-05-14T16:33:24.611Z,26.76
2018-05-14T16:35:52.905Z,26.82
2018-05-14T16:38:22.068Z,26.68
2018-05-14T16:40:50.435Z,26.51
2018-05-14T16:43:19.602Z,26.39
2018-05-14T16:45:47.990Z,26.34
2018-05-14T16:48:16.427Z,26.06
2018-05-14T16:50:44.808Z,26.15
2018-05-14T16:53:13.226Z,25.99
2018-05-14T16:55:41.623Z,26.16
2018-05-14T16:58:10.022Z,25.94
2018-05-14T17:00:38.470Z,26.04
2018-05-14T17:03:06.851Z,26.05
2018-05-14T17:05:35.245Z,25.94
2018-05-14T17:08:03.638Z,25.87
2018-05-14T17:10:32.033Z,25.85
2018-05-14T17:13:00.410Z,25.68
2018-05-14T17:15:28.817Z,25.83
2018-05-14T17:17:58.000Z,25.67
2018-05-14T17:20:26.438Z,25.66
2018-05-14T17:22:54.838Z,25.51
2018-05-14T17:25:23.213Z,25.63
2018-05-14T17:27:51.623Z,25.54
2018-05-14T17:30:20.021Z,25.45
2018-05-14T17:32:48.439Z,25.51
2018-05-14T17:35:16.845Z,25.39
2018-05-14T17:37:45.323Z,25.57
2018-05-14T17:40:13.725Z,25.69
2018-05-14T17:42:42.126Z,25.75
2018-05-14T17:45:10.541Z,25.66
2018-05-14T17:47:39.732Z,25.69
2018-05-14T17:50:08.110Z,25.69
2018-05-14T17:52:36.522Z,25.55
2018-05-14T17:55:05.709Z,25.54
2018-05-14T17:57:34.899Z,25.37
2018-05-14T18:00:03.337Z,25.28
2018-05-14T18:02:31.706Z,25.30
2018-05-14T18:05:00.227Z,25.15
2018-05-14T18:07:28.611Z,25.11
2018-05-14T18:09:57.090Z,24.95
2018-05-14T18:12:25.486Z,24.96
2018-05-14T18:14:53.885Z,24.90
2018-05-14T18:17:22.398Z,24.81
2018-05-14T18:19:56.194Z,24.70
2018-05-14T18:22:26.342Z,24.61
2018-05-14T18:25:00.300Z,24.55
2018-05-14T18:27:31.935Z,24.51
2018-05-14T18:30:06.583Z,24.38
2018-05-14T18:32:34.968Z,24.30
2018-05-14T18:35:08.913Z,24.32
2018-05-14T18:37:38.079Z,24.18
2018-05-14T18:40:06.465Z,23.98
2018-05-14T18:42:34.929Z,23.93
2018-05-14T18:45:03.332Z,23.90
2018-05-14T18:47:32.550Z,23.75
2018-05-14T18:50:00.966Z,23.80
2018-05-14T18:52:29.353Z,23.85
2018-05-14T18:54:57.771Z,23.88
2018-05-14T18:57:26.221Z,23.71
2018-05-14T18:59:54.618Z,23.53
2018-05-14T19:02:23.049Z,23.60
2018-05-14T19:04:51.451Z,23.39
2018-05-14T19:07:20.625Z,23.12
2018-05-14T19:09:49.025Z,22.78
2018-05-14T19:12:18.214Z,22.47
2018-05-14T19:14:52.228Z,22.38
2018-05-14T19:17:25.981Z,22.45
2018-05-14T19:19:54.430Z,22.70
2018-05-14T19:22:29.048Z,22.72
2018-05-14T19:24:57.457Z,22.60
2018-05-14T19:27:26.646Z,22.44
2018-05-14T19:29:55.890Z,22.28
2018-05-14T19:32:24.402Z,22.16
2018-05-14T19:37:56.479Z,21.92
2018-05-14T19:40:30.338Z,21.80
2018-05-14T19:42:58.749Z,21.64
2018-05-14T19:45:27.176Z,21.59
2018-05-14T19:47:56.363Z,21.55
2018-05-14T19:50:24.857Z,21.50
2018-05-14T19:52:53.276Z,21.33
2018-05-14T19:55:21.738Z,21.21
2018-05-14T19:57:50.108Z,21.10
2018-05-14T20:00:18.501Z,20.92
2018-05-14T20:02:47.681Z,20.95
2018-05-14T20:05:16.079Z,20.96
2018-05-14T20:07:44.495Z,20.78
2018-05-14T20:10:13.231Z,20.58
2018-05-14T20:12:41.642Z,20.39
2018-05-14T20:15:10.831Z,20.22
2018-05-14T20:17:39.219Z,20.02
2018-05-14T20:20:07.735Z,19.92
2018-05-14T20:22:36.154Z,19.85
2018-05-14T20:25:05.323Z,19.73
2018-05-14T20:27:34.531Z,19.55
2018-05-14T20:30:02.918Z,19.49
2018-05-14T20:32:31.370Z,19.32
2018-05-14T20:34:59.794Z,19.15
2018-05-14T20:37:28.274Z,19.11
2018-05-14T20:39:56.678Z,19.02
2018-05-14T20:42:25.079Z,19.06
2018-05-14T20:44:53.562Z,18.94
2018-05-14T20:47:21.945Z,18.83
2018-05-14T20:49:50.365Z,18.66
2018-05-14T20:52:19.546Z,18.56
2018-05-14T20:54:48.031Z,18.50
2018-05-14T20:57:16.465Z,18.34
2018-05-14T20:59:44.960Z,18.15
2018-05-14T21:02:14.180Z,18.04
2018-05-14T21:04:42.570Z,17.92
2018-05-14T21:07:10.954Z,17.72
2018-05-14T21:09:39.358Z,17.58
2018-05-14T21:12:07.835Z,17.49
2018-05-14T21:14:36.353Z,17.37
2018-05-14T21:17:04.667Z,17.26
2018-05-14T21:19:33.058Z,17.21
2018-05-14T21:22:01.629Z,17.10
2018-05-14T21:24:30.027Z,17.09
2018-05-14T21:26:58.469Z,17.10
2018-05-14T21:29:27.618Z,17.11
2018-05-14T21:31:55.998Z,17.14
2018-05-14T21:34:24.402Z,17.22
2018-05-14T21:36:52.778Z,17.23
2018-05-14T21:39:21.178Z,17.32
2018-05-14T21:41:50.329Z,17.30
2018-05-14T21:44:18.722Z,17.32
2018-05-14T21:46:47.135Z,17.30
2018-05-14T21:49:16.293Z,17.39
2018-05-14T21:51:44.661Z,17.39
2018-05-14T21:54:13.074Z,17.31
2018-05-14T21:56:41.483Z,17.21
2018-05-14T21:59:09.859Z,17.09
2018-05-14T22:01:38.346Z,17.01
2018-05-14T22:04:07.565Z,16.87
2018-05-14T22:06:35.957Z,16.77
2018-05-14T22:09:04.335Z,16.71
2018-05-14T22:11:32.751Z,16.62
2018-05-14T22:14:01.258Z,16.49
2018-05-14T22:16:29.648Z,16.39
2018-05-14T22:18:58.031Z,16.28
2018-05-14T22:21:26.417Z,16.15
2018-05-14T22:23:54.793Z,16.04
2018-05-14T22:26:23.194Z,15.95
2018-05-14T22:28:51.639Z,15.88
2018-05-14T22:31:20.029Z,15.85
2018-05-14T22:33:48.418Z,15.80
2018-05-14T22:36:17.244Z,15.87
2018-05-14T22:38:45.723Z,15.90
2018-05-14T22:41:14.265Z,16.00
2018-05-14T22:43:42.709Z,16.04
2018-05-14T22:46:11.086Z,16.04
2018-05-14T22:48:39.477Z,16.13
2018-05-14T22:51:07.882Z,16.07
2018-05-14T22:53:37.042Z,15.95
2018-05-14T22:56:05.430Z,15.93
2018-05-14T22:58:33.879Z,15.79
2018-05-14T23:01:02.288Z,15.69
2018-05-14T23:03:30.708Z,15.56
2018-05-14T23:05:59.914Z,15.46
2018-05-14T23:08:29.092Z,15.43
2018-05-14T23:10:57.461Z,15.33
2018-05-14T23:13:25.866Z,15.34
2018-05-14T23:15:54.243Z,15.24
2018-05-14T23:18:22.632Z,15.15
2018-05-14T23:20:51.036Z,15.11
2018-05-14T23:23:20.197Z,15.00
2018-05-14T23:25:48.602Z,14.89
2018-05-14T23:28:17.027Z,14.80
2018-05-14T23:30:45.439Z,14.64
2018-05-14T23:33:13.865Z,14.53
2018-05-14T23:35:43.138Z,14.44
2018-05-14T23:38:12.281Z,14.31
2018-05-14T23:40:41.497Z,14.20
2018-05-14T23:43:09.874Z,14.10
2018-05-14T23:45:38.255Z,13.99
2018-05-14T23:48:07.419Z,13.94
2018-05-14T23:50:35.894Z,13.89
2018-05-14T23:53:05.709Z,13.84
2018-05-14T23:55:34.102Z,13.77
2018-05-14T23:58:02.485Z,13.73
